Time;durP1;ratioP1;P1;durP2;ratioP2;P2;SDS_P1;SDS_P2;PMS_P1;PMS_P2;Temp;Humidity;BMP_temperature;BMP_pressure;BME280_temperature;BME280_humidity;BME280_pressure;Samples;Min_cycle;Max_cycle;Signal;HPM_P1;HPM_P2
2021/07/07 00:02:01;;;;;;;0.60;0.60;;;21.50;61.50;;;;;;5055761;28;20217;-73
2021/07/07 00:04:27;;;;;;;1.70;0.90;;;21.50;61.50;;;;;;5055703;28;20175;-73
2021/07/07 00:06:52;;;;;;;1.38;0.70;;;21.50;61.50;;;;;;5054914;28;20175;-74
2021/07/07 00:09:19;;;;;;;1.10;0.70;;;21.50;61.50;;;;;;5055940;28;20163;-74
2021/07/07 00:11:45;;;;;;;1.10;0.93;;;21.50;61.50;;;;;;5055541;28;20179;-73
2021/07/07 00:14:14;;;;;;;2.20;0.90;;;21.50;61.50;;;;;;5054993;28;20181;-73
2021/07/07 00:16:39;;;;;;;1.58;0.80;;;21.50;61.50;;;;;;5055250;28;20179;-73
2021/07/07 00:19:05;;;;;;;2.13;0.77;;;21.50;61.50;;;;;;5055660;28;20185;-74
2021/07/07 00:21:31;;;;;;;1.50;0.70;;;21.50;61.60;;;;;;5054262;28;20603;-73
2021/07/07 00:23:57;;;;;;;1.60;0.88;;;21.50;61.50;;;;;;5055575;28;20179;-72
2021/07/07 00:26:22;;;;;;;1.45;1.20;;;21.50;61.50;;;;;;5055455;28;20726;-72
2021/07/07 00:28:48;;;;;;;0.95;0.90;;;21.50;61.50;;;;;;5054318;28;20163;-72
2021/07/07 00:31:13;;;;;;;1.92;0.88;;;21.50;61.50;;;;;;5055248;28;20187;-72
2021/07/07 00:33:39;;;;;;;1.67;0.80;;;21.50;61.50;;;;;;5055123;28;20171;-73
2021/07/07 00:36:04;;;;;;;1.40;0.90;;;21.50;61.50;;;;;;5054408;28;20171;-72
2021/07/07 00:38:30;;;;;;;1.10;0.80;;;21.50;61.50;;;;;;5054891;28;20206;-73
2021/07/07 00:40:57;;;;;;;2.83;0.70;;;21.50;61.50;;;;;;5055241;28;20203;-71
2021/07/07 00:43:23;;;;;;;1.10;1.00;;;21.50;61.60;;;;;;5054670;28;20179;-73
2021/07/07 00:45:48;;;;;;;1.23;0.63;;;21.50;61.60;;;;;;5054688;28;20179;-72
2021/07/07 00:48:14;;;;;;;1.33;0.80;;;21.40;61.50;;;;;;5054859;28;20675;-73
2021/07/07 00:50:41;;;;;;;1.50;0.77;;;21.40;61.50;;;;;;5054093;28;20270;-72
2021/07/07 00:53:07;;;;;;;1.48;0.80;;;21.40;61.60;;;;;;5054913;28;20207;-72
2021/07/07 00:55:32;;;;;;;1.35;0.68;;;21.40;61.60;;;;;;5053837;28;20210;-73
2021/07/07 00:57:58;;;;;;;1.02;0.90;;;21.50;61.70;;;;;;5053818;28;20171;-71
2021/07/07 01:00:24;;;;;;;1.15;0.80;;;21.40;61.60;;;;;;5053418;28;20591;-72
2021/07/07 01:02:51;;;;;;;1.90;0.70;;;21.40;61.60;;;;;;5054089;28;20827;-72
2021/07/07 01:05:17;;;;;;;0.60;0.60;;;21.40;61.60;;;;;;5054772;28;20599;-74
2021/07/07 01:07:42;;;;;;;2.00;0.90;;;21.40;61.70;;;;;;5054487;28;20829;-74
2021/07/07 01:10:12;;;;;;;0.70;0.70;;;21.40;61.70;;;;;;5053889;28;20642;-73
2021/07/07 01:12:38;;;;;;;3.10;0.80;;;21.40;61.70;;;;;;5054281;28;20258;-73
2021/07/07 01:15:08;;;;;;;1.58;0.63;;;21.40;61.70;;;;;;5054371;28;20254;-74
2021/07/07 01:17:34;;;;;;;2.70;1.25;;;21.40;61.60;;;;;;5053621;28;20201;-73
2021/07/07 01:20:00;;;;;;;4.20;1.02;;;21.40;61.60;;;;;;5054265;28;20251;-74
2021/07/07 01:22:28;;;;;;;0.70;0.70;;;21.40;61.70;;;;;;5054283;28;20665;-73
2021/07/07 01:24:54;;;;;;;1.08;0.73;;;21.40;61.70;;;;;;5053216;28;20209;-72
2021/07/07 01:27:23;;;;;;;0.98;0.68;;;21.40;61.70;;;;;;5054095;28;20599;-72
2021/07/07 01:29:48;;;;;;;1.50;0.60;;;21.40;61.60;;;;;;5054044;28;20255;-72
2021/07/07 01:32:14;;;;;;;1.60;0.88;;;21.30;61.70;;;;;;5053388;28;20562;-73
2021/07/07 01:34:39;;;;;;;1.63;0.80;;;21.30;61.60;;;;;;5053933;28;20172;-73
2021/07/07 01:37:05;;;;;;;1.50;1.20;;;21.30;61.60;;;;;;5054050;28;20183;-73
2021/07/07 01:39:31;;;;;;;1.42;0.88;;;21.30;61.60;;;;;;5053050;28;20179;-73
2021/07/07 01:41:56;;;;;;;2.05;1.20;;;21.30;61.60;;;;;;5053914;28;20236;-72
2021/07/07 01:44:22;;;;;;;1.08;0.80;;;21.30;61.60;;;;;;5053655;28;20994;-72
2021/07/07 01:46:47;;;;;;;0.77;0.70;;;21.30;61.60;;;;;;5052964;28;20187;-72
2021/07/07 01:49:13;;;;;;;1.40;0.80;;;21.30;61.60;;;;;;5053692;28;20171;-72
2021/07/07 01:51:44;;;;;;;1.15;0.80;;;21.30;61.70;;;;;;5052962;28;20171;-72
2021/07/07 01:54:10;;;;;;;0.95;0.88;;;21.30;61.60;;;;;;5053749;28;20175;-71
2021/07/07 01:56:35;;;;;;;1.17;0.70;;;21.30;61.60;;;;;;5053294;28;20595;-72
2021/07/07 01:59:01;;;;;;;3.35;1.00;;;21.30;61.70;;;;;;5052871;28;20233;-72
2021/07/07 02:01:26;;;;;;;1.38;0.80;;;21.30;61.60;;;;;;5053771;28;20242;-73
2021/07/07 02:03:52;;;;;;;1.05;0.63;;;21.30;61.70;;;;;;5053283;28;20172;-74
2021/07/07 02:06:20;;;;;;;1.10;0.80;;;21.30;61.60;;;;;;5052746;28;20178;-73
2021/07/07 02:08:46;;;;;;;1.60;1.15;;;21.30;61.60;;;;;;5053040;28;20258;-73
2021/07/07 02:11:11;;;;;;;0.70;0.65;;;21.30;61.60;;;;;;5053227;28;20274;-73
2021/07/07 02:13:37;;;;;;;0.70;0.70;;;21.30;61.60;;;;;;5052307;28;20174;-74
2021/07/07 02:16:04;;;;;;;2.70;0.80;;;21.30;61.70;;;;;;5053448;28;20222;-74
2021/07/07 02:18:29;;;;;;;0.73;0.73;;;21.20;61.60;;;;;;5053118;28;20186;-74
2021/07/07 02:20:55;;;;;;;0.93;0.93;;;21.30;62.40;;;;;;5052276;28;20226;-74
2021/07/07 02:23:20;;;;;;;1.65;0.75;;;21.20;61.50;;;;;;5053081;28;20178;-72
2021/07/07 02:25:46;;;;;;;0.90;0.82;;;21.30;61.60;;;;;;5052792;28;20653;-73
2021/07/07 02:28:13;;;;;;;2.20;0.90;;;21.20;61.50;;;;;;5052582;28;20182;-72
2021/07/07 02:30:39;;;;;;;1.08;0.60;;;21.20;61.50;;;;;;5052878;28;20179;-72
2021/07/07 02:33:06;;;;;;;1.38;0.82;;;21.20;61.60;;;;;;5053182;28;20178;-73
2021/07/07 02:35:33;;;;;;;1.58;0.93;;;21.20;61.60;;;;;;5052037;28;20186;-73
2021/07/07 02:37:59;;;;;;;1.20;0.93;;;21.20;61.60;;;;;;5053002;28;20301;-73
2021/07/07 02:40:26;;;;;;;1.63;0.63;;;21.20;61.40;;;;;;5052824;28;20186;-72
2021/07/07 02:42:52;;;;;;;1.02;0.93;;;21.20;61.40;;;;;;5052045;28;20183;-73
2021/07/07 02:45:17;;;;;;;0.82;0.70;;;21.20;61.50;;;;;;5052891;28;20258;-73
2021/07/07 02:47:43;;;;;;;1.67;0.73;;;21.20;61.50;;;;;;5052808;28;20175;-72
2021/07/07 02:50:10;;;;;;;1.33;0.80;;;21.20;61.50;;;;;;5052213;28;20171;-72
2021/07/07 02:52:37;;;;;;;1.25;1.15;;;21.20;61.50;;;;;;5052414;28;20520;-72
2021/07/07 02:55:03;;;;;;;1.00;0.73;;;21.20;61.60;;;;;;5051962;28;20179;-72
2021/07/07 02:57:55;;;;;;;1.88;0.90;;;21.20;61.50;;;;;;5052915;28;20186;-72
2021/07/07 03:00:15;;;;;;;0.60;0.60;;;21.10;61.40;;;;;;5052520;28;20179;-72
2021/07/07 03:02:40;;;;;;;0.82;0.75;;;21.20;61.40;;;;;;5051821;28;20174;-73
2021/07/07 03:05:06;;;;;;;0.80;0.80;;;21.10;61.40;;;;;;5052911;28;20167;-74
2021/07/07 03:07:32;;;;;;;0.85;0.73;;;21.10;61.30;;;;;;5050988;28;20178;-74
2021/07/07 03:09:57;;;;;;;1.58;0.93;;;21.10;61.40;;;;;;5051864;28;20182;-74
2021/07/07 03:12:23;;;;;;;1.52;0.80;;;21.10;61.30;;;;;;5052594;28;20559;-73
2021/07/07 03:14:51;;;;;;;1.50;1.00;;;21.10;61.40;;;;;;5052279;28;20230;-74
2021/07/07 03:17:16;;;;;;;1.75;1.00;;;21.10;61.40;;;;;;5051963;28;20179;-74
2021/07/07 03:19:42;;;;;;;0.77;0.77;;;21.10;61.40;;;;;;5052196;28;20181;-72
2021/07/07 03:22:07;;;;;;;0.88;0.88;;;21.10;61.30;;;;;;5055317;28;20202;-73
2021/07/07 03:24:33;;;;;;;1.70;0.80;;;21.10;61.30;;;;;;5055561;28;20528;-71
2021/07/07 03:26:58;;;;;;;2.63;1.48;;;21.10;61.30;;;;;;5056602;28;20179;-72
2021/07/07 03:29:24;;;;;;;1.02;0.90;;;21.10;61.30;;;;;;5056461;28;20216;-72
2021/07/07 03:31:50;;;;;;;0.90;0.80;;;21.10;61.40;;;;;;5055473;28;20175;-73
2021/07/07 03:34:15;;;;;;;0.80;0.80;;;21.10;61.30;;;;;;5056508;28;20175;-73
2021/07/07 03:36:41;;;;;;;1.00;0.90;;;21.10;61.30;;;;;;5056041;28;20248;-73
2021/07/07 03:39:06;;;;;;;0.77;0.77;;;21.10;61.30;;;;;;5055495;28;20175;-73
2021/07/07 03:41:33;;;;;;;1.55;0.80;;;21.10;61.30;;;;;;5055817;28;20610;-73
2021/07/07 03:43:58;;;;;;;1.05;0.95;;;21.10;61.20;;;;;;5056315;28;20183;-73
2021/07/07 03:46:24;;;;;;;0.80;0.80;;;21.10;61.20;;;;;;5055472;28;20175;-72
2021/07/07 03:48:49;;;;;;;0.75;0.73;;;21.10;61.20;;;;;;5055878;28;20641;-72
2021/07/07 03:51:15;;;;;;;1.67;0.93;;;21.10;61.30;;;;;;5055261;28;20221;-72
2021/07/07 03:53:40;;;;;;;1.13;1.00;;;21.10;61.20;;;;;;5056015;28;20191;-73
2021/07/07 03:56:05;;;;;;;2.33;1.10;;;21.10;61.20;;;;;;5055856;28;20183;-73
2021/07/07 03:58:31;;;;;;;2.60;0.90;;;21.10;61.20;;;;;;5055083;28;20182;-74
2021/07/07 04:00:56;;;;;;;0.95;0.95;;;21.10;61.10;;;;;;5056030;28;20199;-73
2021/07/07 04:03:22;;;;;;;1.90;0.90;;;21.10;61.10;;;;;;5055750;28;20175;-75
2021/07/07 04:05:47;;;;;;;1.55;0.85;;;21.00;61.00;;;;;;5054682;28;20738;-75
2021/07/07 04:08:13;;;;;;;1.30;0.85;;;21.10;61.00;;;;;;5056075;28;20179;-75
2021/07/07 04:10:38;;;;;;;0.80;0.80;;;21.10;61.00;;;;;;5055609;28;20171;-74
2021/07/07 04:13:04;;;;;;;1.10;1.00;;;21.10;61.10;;;;;;5055116;28;20179;-74
2021/07/07 04:15:29;;;;;;;1.60;0.80;;;21.10;61.00;;;;;;5055435;28;20175;-75
2021/07/07 04:17:55;;;;;;;1.23;0.70;;;21.10;61.00;;;;;;5055503;28;20541;-73
2021/07/07 04:20:20;;;;;;;1.10;0.95;;;21.10;61.00;;;;;;5054473;28;20256;-75
2021/07/07 04:22:48;;;;;;;1.10;0.90;;;21.10;61.00;;;;;;5055062;28;20183;-74
2021/07/07 04:25:14;;;;;;;1.42;0.98;;;21.10;61.00;;;;;;5055505;28;20203;-74
2021/07/07 04:27:40;;;;;;;1.13;0.90;;;21.10;61.10;;;;;;5054447;28;20183;-73
2021/07/07 04:30:07;;;;;;;0.93;0.90;;;21.00;60.90;;;;;;5055278;28;20171;-73
2021/07/07 04:32:32;;;;;;;2.40;1.02;;;21.10;61.00;;;;;;5053629;28;20179;-74
2021/07/07 04:34:58;;;;;;;0.90;0.90;;;21.00;61.00;;;;;;5054439;28;20183;-75
2021/07/07 04:37:23;;;;;;;1.23;0.60;;;21.00;61.00;;;;;;5055447;28;20617;-75
2021/07/07 04:39:49;;;;;;;1.00;0.70;;;21.10;61.00;;;;;;5054958;28;20233;-74
2021/07/07 04:42:14;;;;;;;2.13;1.00;;;21.10;60.90;;;;;;5054468;28;20568;-73
2021/07/07 04:44:40;;;;;;;0.77;0.60;;;21.10;60.90;;;;;;5054761;28;20173;-74
2021/07/07 04:47:05;;;;;;;1.13;0.90;;;21.10;60.90;;;;;;5054899;28;20214;-74
2021/07/07 04:49:34;;;;;;;1.10;0.90;;;21.10;60.80;;;;;;5053875;28;20189;-74
2021/07/07 04:51:59;;;;;;;0.50;0.50;;;21.10;60.90;;;;;;5054593;28;20278;-74
2021/07/07 04:54:25;;;;;;;1.23;0.90;;;21.10;60.90;;;;;;5055099;28;20262;-73
2021/07/07 04:56:50;;;;;;;0.70;0.70;;;21.10;60.80;;;;;;5053994;28;20253;-73
2021/07/07 04:59:16;;;;;;;1.20;1.10;;;21.10;60.80;;;;;;5054743;28;20703;-73
2021/07/07 05:01:42;;;;;;;2.92;0.90;;;21.10;60.70;;;;;;5053517;28;20543;-73
2021/07/07 05:04:08;;;;;;;1.75;0.85;;;21.10;60.70;;;;;;5054676;28;20175;-74
2021/07/07 05:06:33;;;;;;;1.00;1.00;;;21.20;60.70;;;;;;5054454;28;20186;-73
2021/07/07 05:08:59;;;;;;;1.38;0.77;;;21.20;60.60;;;;;;5053972;28;20167;-75
2021/07/07 05:11:24;;;;;;;2.10;0.90;;;21.10;60.60;;;;;;5054579;28;20175;-74
2021/07/07 05:13:50;;;;;;;1.15;1.05;;;21.20;60.70;;;;;;5054108;28;20175;-74
2021/07/07 05:16:15;;;;;;;1.48;0.90;;;21.10;60.60;;;;;;5053640;28;20641;-74
2021/07/07 05:18:44;;;;;;;0.95;0.80;;;21.10;60.80;;;;;;5052666;28;20281;-74
2021/07/07 05:21:12;;;;;;;1.10;1.00;;;21.10;60.70;;;;;;5054070;28;20231;-74
2021/07/07 05:23:37;;;;;;;2.55;0.98;;;21.10;60.80;;;;;;5053503;28;20553;-75
2021/07/07 05:26:04;;;;;;;1.27;0.93;;;21.10;60.80;;;;;;5054366;28;20262;-72
2021/07/07 05:28:29;;;;;;;1.25;1.00;;;21.10;60.80;;;;;;5054071;28;20179;-73
2021/07/07 05:30:57;;;;;;;1.75;1.08;;;21.10;60.80;;;;;;5053485;28;20629;-73
2021/07/07 05:33:23;;;;;;;1.15;0.85;;;21.10;60.90;;;;;;5053994;28;20179;-75
2021/07/07 05:35:49;;;;;;;0.82;0.82;;;21.10;60.90;;;;;;5054022;28;20617;-74
2021/07/07 05:38:14;;;;;;;0.95;0.90;;;21.10;60.90;;;;;;5053476;28;20173;-74
2021/07/07 05:40:40;;;;;;;1.08;1.02;;;21.10;60.90;;;;;;5053586;28;20543;-74
2021/07/07 05:43:05;;;;;;;1.27;0.88;;;21.10;60.90;;;;;;5053973;28;20183;-73
2021/07/07 05:45:31;;;;;;;1.48;1.10;;;21.10;61.00;;;;;;5052641;28;20171;-76
2021/07/07 05:47:56;;;;;;;1.30;1.00;;;21.10;60.90;;;;;;5053735;28;20221;-74
2021/07/07 05:50:23;;;;;;;1.27;1.02;;;21.10;60.90;;;;;;5054020;28;20197;-73
2021/07/07 05:52:48;;;;;;;2.42;1.27;;;21.10;60.90;;;;;;5052675;28;20587;-74
2021/07/07 05:55:14;;;;;;;1.90;0.98;;;21.10;60.90;;;;;;5053723;28;20171;-73
2021/07/07 05:57:40;;;;;;;2.30;1.40;;;21.10;60.90;;;;;;5053395;28;20237;-72
2021/07/07 06:00:09;;;;;;;1.40;1.15;;;21.10;60.90;;;;;;5052939;28;20607;-73
2021/07/07 06:02:35;;;;;;;1.23;1.13;;;21.10;60.90;;;;;;5053082;28;20265;-72
2021/07/07 06:05:01;;;;;;;1.15;1.00;;;21.10;61.00;;;;;;5052868;28;20175;-72
2021/07/07 06:07:26;;;;;;;2.17;1.10;;;21.20;61.10;;;;;;5053630;28;20210;-70
2021/07/07 06:09:52;;;;;;;1.55;1.00;;;21.20;61.10;;;;;;5053368;28;20167;-73
2021/07/07 06:12:17;;;;;;;3.60;1.30;;;21.20;61.10;;;;;;5052672;28;20525;-72
2021/07/07 06:14:43;;;;;;;1.23;1.20;;;21.20;61.10;;;;;;5053091;28;20171;-72
2021/07/07 06:17:08;;;;;;;2.92;1.15;;;21.20;62.20;;;;;;5053194;28;20183;-71
2021/07/07 06:19:34;;;;;;;2.17;1.30;;;21.20;61.40;;;;;;5052077;28;20258;-73
2021/07/07 06:22:01;;;;;;;4.38;1.60;;;21.20;61.60;;;;;;5053037;28;20231;-67
2021/07/07 06:24:28;;;;;;;5.25;1.88;;;21.20;61.50;;;;;;5053112;28;20185;-65
2021/07/07 06:26:53;;;;;;;4.38;1.83;;;21.20;61.50;;;;;;5051916;28;20171;-65
2021/07/07 06:29:19;;;;;;;4.30;1.63;;;21.20;61.40;;;;;;5052743;28;20237;-70
2021/07/07 06:31:45;;;;;;;2.50;1.25;;;21.30;61.70;;;;;;5052669;28;20645;-71
2021/07/07 06:34:11;;;;;;;7.15;1.40;;;21.30;61.60;;;;;;5052552;28;20178;-72
2021/07/07 06:36:37;;;;;;;2.30;1.20;;;21.30;61.40;;;;;;5052865;28;20525;-71
2021/07/07 06:39:02;;;;;;;2.72;1.35;;;21.30;61.40;;;;;;5053084;28;20270;-74
2021/07/07 06:41:28;;;;;;;3.78;1.50;;;21.30;61.40;;;;;;5052125;28;20211;-73
2021/07/07 06:43:53;;;;;;;2.45;1.50;;;21.30;61.40;;;;;;5052613;28;20186;-72
2021/07/07 06:46:19;;;;;;;5.70;1.63;;;21.30;62.30;;;;;;5052879;28;20212;-72
2021/07/07 06:48:44;;;;;;;2.97;1.45;;;21.30;61.40;;;;;;5051971;28;20305;-72
2021/07/07 06:51:10;;;;;;;4.47;1.42;;;21.40;61.50;;;;;;5052965;28;20195;-69
2021/07/07 06:53:35;;;;;;;3.83;1.63;;;21.40;61.50;;;;;;5052409;28;20175;-72
2021/07/07 06:56:01;;;;;;;4.32;1.50;;;21.40;61.70;;;;;;5051398;28;20710;-72
2021/07/07 06:58:26;;;;;;;4.60;1.45;;;21.40;61.70;;;;;;5052788;28;20171;-72
2021/07/07 07:00:52;;;;;;;4.22;1.70;;;21.40;61.60;;;;;;5052278;28;20203;-76
2021/07/07 07:03:17;;;;;;;6.20;1.77;;;21.40;61.70;;;;;;5052131;28;20190;-74
2021/07/07 07:05:43;;;;;;;6.22;1.65;;;21.40;61.70;;;;;;5052587;28;20181;-70
2021/07/07 07:08:12;;;;;;;4.15;1.48;;;21.40;61.70;;;;;;5051560;28;20640;-74
2021/07/07 07:10:38;;;;;;;4.28;1.70;;;21.40;61.80;;;;;;5050315;28;20179;-73
2021/07/07 07:13:04;;;;;;;4.65;1.63;;;21.40;61.70;;;;;;5050573;28;20536;-75
2021/07/07 07:15:29;;;;;;;5.05;1.80;;;21.50;61.80;;;;;;5049430;28;20254;-76
2021/07/07 07:17:55;;;;;;;4.15;1.50;;;21.50;61.60;;;;;;5050360;28;20167;-78
2021/07/07 07:20:25;;;;;;;5.82;1.67;;;21.50;61.60;;;;;;5050464;28;20700;-77
2021/07/07 07:22:50;;;;;;;7.38;1.70;;;21.50;61.60;;;;;;5050032;28;20727;-76
2021/07/07 07:25:16;;;;;;;5.63;1.50;;;21.50;61.60;;;;;;5052687;28;20179;-76
2021/07/07 07:27:41;;;;;;;5.47;1.70;;;21.50;61.60;;;;;;5052218;28;20186;-75
2021/07/07 07:30:08;;;;;;;6.75;1.73;;;21.50;61.60;;;;;;5051722;28;20171;-75
2021/07/07 07:32:33;;;;;;;3.85;1.42;;;21.50;61.60;;;;;;5052381;28;20179;-75
2021/07/07 07:34:59;;;;;;;5.72;1.63;;;21.50;61.60;;;;;;5052641;28;20565;-76
2021/07/07 07:37:35;;;;;;;6.10;1.40;;;21.50;61.60;;;;;;5051773;28;20167;-77
2021/07/07 07:40:01;;;;;;;4.95;1.83;;;21.60;61.60;;;;;;5052676;28;20182;-76
2021/07/07 07:42:26;;;;;;;5.82;2.22;;;21.60;61.70;;;;;;5052185;28;20211;-78
2021/07/07 07:44:55;;;;;;;6.20;1.60;;;21.60;61.70;;;;;;5051436;28;20171;-79
2021/07/07 07:47:20;;;;;;;3.78;1.85;;;21.40;61.60;;;;;;5052357;28;20175;-78
2021/07/07 07:49:46;;;;;;;4.53;1.70;;;21.50;61.70;;;;;;5052076;28;20171;-75
2021/07/07 07:52:11;;;;;;;4.57;1.88;;;21.50;61.80;;;;;;5051664;28;20179;-75
2021/07/07 07:54:37;;;;;;;5.57;1.75;;;21.50;61.80;;;;;;5052002;28;20222;-78
2021/07/07 07:57:03;;;;;;;2.83;1.63;;;21.60;61.80;;;;;;5052174;28;20179;-76
2021/07/07 07:59:28;;;;;;;2.42;1.40;;;21.60;61.70;;;;;;5051683;28;20177;-76
2021/07/07 08:01:54;;;;;;;2.47;1.50;;;21.60;61.80;;;;;;5051894;28;20207;-77
2021/07/07 08:04:20;;;;;;;2.72;1.55;;;21.60;61.70;;;;;;5052259;28;20264;-75
2021/07/07 08:06:46;;;;;;;3.08;1.52;;;21.60;61.70;;;;;;5051644;28;20202;-75
2021/07/07 08:09:11;;;;;;;2.30;1.85;;;21.60;61.60;;;;;;5055933;28;20182;-73
2021/07/07 08:11:37;;;;;;;3.28;1.50;;;21.60;61.60;;;;;;5054744;28;20203;-74
2021/07/07 08:14:02;;;;;;;2.03;1.50;;;21.70;61.60;;;;;;5055533;28;20167;-75
2021/07/07 08:16:28;;;;;;;5.40;1.90;;;21.70;61.60;;;;;;5055828;28;20304;-75
2021/07/07 08:18:53;;;;;;;2.58;1.38;;;21.70;61.60;;;;;;5054709;28;20168;-76
2021/07/07 08:21:19;;;;;;;1.80;1.42;;;21.70;61.60;;;;;;5055210;28;20226;-76
2021/07/07 08:23:45;;;;;;;2.17;1.65;;;21.70;61.60;;;;;;5055229;28;20580;-75
2021/07/07 08:26:11;;;;;;;2.60;1.80;;;21.70;61.60;;;;;;5054630;28;20214;-75
2021/07/07 08:28:36;;;;;;;2.13;1.55;;;21.80;61.60;;;;;;5055305;28;20198;-73
2021/07/07 08:31:02;;;;;;;5.28;1.45;;;21.70;61.60;;;;;;5055380;28;20538;-75
2021/07/07 08:33:27;;;;;;;3.50;1.65;;;21.80;61.60;;;;;;5054733;28;20671;-74
2021/07/07 08:35:53;;;;;;;2.17;1.70;;;21.80;61.60;;;;;;5055001;28;20543;-75
2021/07/07 08:38:18;;;;;;;1.58;1.42;;;21.80;61.70;;;;;;5055241;28;20179;-76
2021/07/07 08:40:44;;;;;;;2.95;1.83;;;21.80;61.70;;;;;;5053853;28;20206;-76
2021/07/07 08:43:09;;;;;;;3.97;1.60;;;21.80;61.60;;;;;;5055342;28;20172;-77
2021/07/07 08:45:35;;;;;;;2.85;1.40;;;21.90;61.60;;;;;;5054931;28;20194;-75
2021/07/07 08:48:00;;;;;;;2.95;1.50;;;21.90;61.70;;;;;;5054253;28;20202;-76
2021/07/07 08:50:28;;;;;;;3.05;1.60;;;21.90;61.60;;;;;;5054942;28;20168;-75
2021/07/07 08:52:55;;;;;;;2.35;1.40;;;21.90;61.60;;;;;;5054608;28;20258;-76
2021/07/07 08:55:21;;;;;;;3.72;1.42;;;22.00;61.70;;;;;;5054186;28;20175;-76
2021/07/07 08:57:47;;;;;;;2.90;1.90;;;22.00;61.60;;;;;;5054544;28;20175;-75
2021/07/07 09:00:18;;;;;;;1.60;1.48;;;22.00;61.50;;;;;;5055066;28;20190;-76
2021/07/07 09:02:55;;;;;;;1.73;1.27;;;22.00;61.40;;;;;;5053990;28;20311;-77
2021/07/07 09:05:20;;;;;;;1.67;1.40;;;22.10;61.40;;;;;;5054974;28;20201;-75
2021/07/07 09:07:46;;;;;;;2.65;1.58;;;22.10;61.40;;;;;;5053719;28;20541;-75
2021/07/07 09:10:15;;;;;;;4.32;1.75;;;22.10;61.30;;;;;;5054460;28;20570;-73
2021/07/07 09:12:40;;;;;;;1.80;1.65;;;22.20;61.30;;;;;;5054381;28;20175;-74
2021/07/07 09:15:07;;;;;;;2.15;1.48;;;22.20;61.40;;;;;;5053729;28;20221;-75
2021/07/07 09:17:41;;;;;;;1.77;1.50;;;22.20;61.40;;;;;;5053999;28;20207;-76
2021/07/07 09:20:26;;;;;;;2.97;1.88;;;22.10;61.40;;;;;;5053519;28;20237;-76
2021/07/07 09:23:12;;;;;;;2.42;1.60;;;22.10;61.70;;;;;;5053443;28;20191;-75
2021/07/07 09:25:47;;;;;;;2.22;1.70;;;22.10;61.70;;;;;;5054179;28;20176;-75
2021/07/07 09:28:19;;;;;;;1.85;1.65;;;22.00;61.80;;;;;;5054439;28;20179;-74
2021/07/07 09:30:45;;;;;;;1.60;1.50;;;22.00;61.90;;;;;;5053259;28;20171;-73
2021/07/07 09:33:11;;;;;;;1.90;1.67;;;22.00;62.00;;;;;;5053067;28;20181;-75
2021/07/07 09:35:36;;;;;;;2.10;1.63;;;22.00;62.00;;;;;;5053959;28;20174;-75
2021/07/07 09:38:04;;;;;;;1.48;1.38;;;22.10;61.70;;;;;;5053231;28;20175;-75
2021/07/07 09:40:30;;;;;;;1.85;1.40;;;22.20;61.50;;;;;;5053639;28;20648;-76
2021/07/07 09:42:56;;;;;;;2.78;1.55;;;22.20;61.40;;;;;;5053247;28;20266;-76
2021/07/07 09:45:22;;;;;;;2.13;1.58;;;22.20;61.40;;;;;;5053965;28;20578;-77
2021/07/07 09:47:47;;;;;;;1.90;1.50;;;22.10;61.60;;;;;;5053480;28;20213;-77
2021/07/07 09:50:15;;;;;;;2.75;1.80;;;22.10;61.90;;;;;;5053235;28;20198;-75
2021/07/07 09:52:40;;;;;;;2.00;1.48;;;22.10;61.90;;;;;;5053713;28;20183;-75
2021/07/07 09:55:09;;;;;;;3.38;1.60;;;22.10;61.70;;;;;;5053746;28;20270;-75
2021/07/07 09:57:44;;;;;;;1.98;1.75;;;22.20;61.50;;;;;;5052700;28;20183;-76
2021/07/07 10:00:21;;;;;;;3.45;2.00;;;22.20;61.30;;;;;;5053778;28;20179;-76
2021/07/07 10:02:50;;;;;;;2.05;1.75;;;22.20;61.40;;;;;;5053310;28;20218;-76
2021/07/07 10:05:17;;;;;;;2.17;1.35;;;22.30;61.40;;;;;;5052890;28;20171;-75
2021/07/07 10:07:43;;;;;;;2.72;1.80;;;22.20;61.30;;;;;;5053216;28;20206;-74
2021/07/07 10:10:13;;;;;;;2.22;1.65;;;22.20;61.50;;;;;;5053472;28;20167;-73
2021/07/07 10:12:40;;;;;;;2.50;1.85;;;22.30;61.40;;;;;;5051202;28;20190;-73
2021/07/07 10:15:06;;;;;;;2.10;1.60;;;22.30;61.30;;;;;;5052187;28;20175;-74
2021/07/07 10:17:31;;;;;;;2.55;1.75;;;22.30;61.20;;;;;;5052973;28;20182;-71
2021/07/07 10:19:57;;;;;;;2.53;1.38;;;22.30;61.40;;;;;;5051404;28;20254;-75
2021/07/07 10:22:22;;;;;;;2.95;1.45;;;22.20;61.50;;;;;;5053181;28;20218;-76
2021/07/07 10:24:48;;;;;;;1.67;1.58;;;22.30;61.40;;;;;;5052893;28;20533;-70
2021/07/07 10:27:13;;;;;;;4.57;1.55;;;22.30;62.20;;;;;;5051191;28;20624;-70
2021/07/07 10:29:39;;;;;;;3.47;1.42;;;22.20;61.50;;;;;;5051540;28;20182;-70
2021/07/07 10:32:05;;;;;;;3.17;1.58;;;22.30;61.50;;;;;;5051332;28;20187;-70
2021/07/07 10:34:31;;;;;;;4.45;1.67;;;22.30;61.40;;;;;;5052504;28;20183;-71
2021/07/07 10:36:58;;;;;;;2.95;1.70;;;22.40;61.20;;;;;;5052968;28;20205;-71
2021/07/07 10:39:23;;;;;;;2.45;1.70;;;22.40;61.20;;;;;;5052261;28;20209;-71
2021/07/07 10:42:00;;;;;;;2.85;1.45;;;22.30;61.20;;;;;;5053228;28;20752;-73
2021/07/07 10:44:25;;;;;;;2.95;2.08;;;22.30;61.20;;;;;;5052886;28;20175;-72
2021/07/07 10:46:53;;;;;;;2.78;1.67;;;22.30;61.30;;;;;;5051955;28;20747;-72
2021/07/07 10:49:23;;;;;;;3.63;1.90;;;22.30;61.50;;;;;;5053015;28;20196;-71
2021/07/07 10:51:52;;;;;;;2.85;1.92;;;22.20;61.50;;;;;;5052433;28;20206;-72
2021/07/07 10:54:22;;;;;;;3.97;2.00;;;22.20;61.60;;;;;;5052106;28;20175;-71
2021/07/07 10:56:48;;;;;;;2.85;1.52;;;22.20;61.80;;;;;;5052654;28;20183;-71
2021/07/07 10:59:33;;;;;;;2.95;1.55;;;22.20;61.90;;;;;;5052923;28;20216;-71
2021/07/07 11:02:03;;;;;;;5.75;1.80;;;22.20;61.80;;;;;;5052331;28;20268;-74
2021/07/07 11:04:38;;;;;;;7.30;1.80;;;22.20;61.60;;;;;;5052863;28;20246;-74
2021/07/07 11:07:32;;;;;;;4.05;1.80;;;22.20;61.60;;;;;;5052890;28;20224;-72
2021/07/07 11:10:03;;;;;;;2.38;1.50;;;22.30;61.60;;;;;;5052683;28;20183;-74
2021/07/07 11:12:35;;;;;;;3.08;1.58;;;22.30;61.40;;;;;;5052781;28;20293;-71
2021/07/07 11:15:17;;;;;;;3.00;2.17;;;22.40;61.30;;;;;;5051959;28;20266;-72
2021/07/07 11:17:48;;;;;;;3.88;1.88;;;22.30;61.20;;;;;;5052574;28;20258;-72
2021/07/07 11:20:21;;;;;;;3.92;1.70;;;22.30;61.40;;;;;;5052307;28;20700;-72
2021/07/07 11:22:57;;;;;;;2.78;1.75;;;22.20;61.50;;;;;;5051478;28;20217;-71
2021/07/07 11:25:22;;;;;;;3.13;1.85;;;22.20;61.60;;;;;;5052378;28;20647;-71
2021/07/07 11:27:48;;;;;;;2.38;2.05;;;22.20;61.70;;;;;;5050970;28;20183;-71
2021/07/07 11:30:14;;;;;;;3.55;1.63;;;22.20;61.70;;;;;;5051603;28;20630;-71
2021/07/07 11:32:44;;;;;;;3.25;1.80;;;22.20;61.60;;;;;;5052052;28;20591;-71
2021/07/07 11:35:13;;;;;;;3.58;1.70;;;22.10;61.60;;;;;;5052894;28;20662;-72
2021/07/07 11:37:39;;;;;;;3.83;1.85;;;22.20;61.60;;;;;;5051424;28;20210;-72
2021/07/07 11:40:18;;;;;;;3.55;1.50;;;22.20;61.50;;;;;;5052507;28;20195;-71
2021/07/07 11:43:01;;;;;;;2.83;1.90;;;22.20;61.50;;;;;;5053616;28;20215;-71
2021/07/07 11:45:31;;;;;;;5.35;2.25;;;22.20;61.40;;;;;;5056398;28;20277;-73
2021/07/07 11:48:06;;;;;;;3.13;2.00;;;22.20;61.30;;;;;;5056293;28;20171;-71
2021/07/07 11:50:31;;;;;;;4.13;1.70;;;22.20;61.20;;;;;;5055070;28;20245;-71
2021/07/07 11:52:59;;;;;;;2.88;1.60;;;22.30;61.20;;;;;;5056015;28;20195;-71
2021/07/07 11:55:44;;;;;;;2.10;1.75;;;22.30;61.00;;;;;;5056107;28;20179;-71
2021/07/07 11:58:11;;;;;;;5.30;1.98;;;22.40;60.80;;;;;;5055500;28;20224;-71
2021/07/07 12:00:37;;;;;;;3.05;1.55;;;22.50;60.60;;;;;;5055535;28;20167;-71
2021/07/07 12:03:03;;;;;;;5.43;2.03;;;22.50;60.50;;;;;;5055747;28;20189;-71
2021/07/07 12:05:28;;;;;;;3.35;1.77;;;22.50;60.50;;;;;;5055328;28;20171;-72
2021/07/07 12:08:12;;;;;;;3.00;1.92;;;22.50;60.50;;;;;;5055657;28;20179;-71
2021/07/07 12:10:38;;;;;;;2.83;1.45;;;22.50;60.40;;;;;;5054983;28;20182;-71
2021/07/07 12:13:27;;;;;;;2.53;1.67;;;22.50;60.50;;;;;;5055716;28;20261;-72
2021/07/07 12:15:53;;;;;;;3.22;1.95;;;22.60;60.30;;;;;;5055592;28;20183;-72
2021/07/07 12:18:26;;;;;;;2.58;1.58;;;22.60;60.20;;;;;;5054032;28;20225;-72
2021/07/07 12:20:52;;;;;;;3.03;1.73;;;22.60;60.30;;;;;;5054985;28;20226;-71
2021/07/07 12:23:17;;;;;;;2.53;2.17;;;22.60;60.30;;;;;;5055474;28;20184;-71
2021/07/07 12:25:43;;;;;;;1.52;1.42;;;22.60;60.30;;;;;;5054510;28;20517;-71
2021/07/07 12:28:09;;;;;;;2.90;1.63;;;22.60;60.20;;;;;;5055385;28;20174;-71
2021/07/07 12:30:38;;;;;;;3.35;1.50;;;22.60;60.20;;;;;;5054006;28;20283;-71
2021/07/07 12:33:04;;;;;;;4.20;2.13;;;22.60;60.20;;;;;;5054624;28;20687;-72
2021/07/07 12:35:30;;;;;;;2.92;1.67;;;22.60;60.30;;;;;;5053877;28;20171;-71
2021/07/07 12:37:55;;;;;;;2.22;1.80;;;22.50;60.30;;;;;;5054803;28;20171;-71
2021/07/07 12:40:22;;;;;;;1.73;1.63;;;22.50;60.30;;;;;;5053071;28;20179;-71
2021/07/07 12:42:52;;;;;;;1.80;1.70;;;22.50;60.30;;;;;;5054635;28;20203;-72
2021/07/07 12:45:17;;;;;;;1.73;1.50;;;22.50;60.30;;;;;;5053960;28;20183;-72
2021/07/07 12:47:46;;;;;;;2.03;1.70;;;22.50;60.30;;;;;;5054179;28;20182;-72